WXM80 ListenWXM80 Stop

You find our weather info also at:

UK Metoffice

WeatherCloud

Weather Underground

Northeastern Weather Network

AWEKAS

Citizen Weather Observer Program (CWOP)

HAMweather, WeatherForYou, PWS Weather


Weather Underground History page Text

Daily Summary for September 9, 2017 Units:  Both    English   Metric
« Previous Day
Next Day »
Daily Weekly Monthly Yearly Custom
  High: Low: Average:
Temperature: 74.1 °F /  23.4 °C 57.9 °F /  14.4 °C 63.7 °F /  17.6 °C
Dew Point: 56.5 °F /  13.6 °C 51.6 °F /  10.9 °C 53.6 °F /  12 °C
Humidity: 85 % 51 % 71 %
Wind Speed: 10.3 mph /  16.6 km/h - 3.1 mph /  5 km/h
Wind Gust: 16.1 mph /  25.9 km/h - -
Wind:- - SSW
Pressure: 30.23 in /  1023.6 hPa 30.11 in /  1019.5 hPa -
Precipitation: 0.00 in /  0 mm    
Historical Graphs
 
 
Tabular Data for September 9, 2017
Time Temperature Dew Point Pressure Wind Wind Speed Wind Gust Humidity Rainfall Rate (Hourly)
00:02 61.3 °F /  16.3 °C 53.7 °F /  12.1 °C 30.11 in /  1019.5 hPa SSE 0.2 mph /  0.3 km/h 2.3 mph /  3.7 km/h 76 % 0.00 in /  0 mm
00:07 61.3 °F /  16.3 °C 53.7 °F /  12.1 °C 30.12 in /  1019.9 hPa NW 2.3 mph /  3.7 km/h 5.8 mph /  9.3 km/h 76 % 0.00 in /  0 mm
00:12 61.2 °F /  16.2 °C 53.6 °F /  12 °C 30.12 in /  1019.9 hPa NNW 0.1 mph /  0.2 km/h 1.2 mph /  1.9 km/h 76 % 0.00 in /  0 mm
00:17 61.1 °F /  16.2 °C 53.5 °F /  11.9 °C 30.12 in /  1019.9 hPa NW 1.0 mph /  1.6 km/h 3.5 mph /  5.6 km/h 76 % 0.00 in /  0 mm
00:22 61.1 °F /  16.2 °C 53.5 °F /  11.9 °C 30.12 in /  1019.9 hPa North 1.7 mph /  2.7 km/h 3.5 mph /  5.6 km/h 76 % 0.00 in /  0 mm
00:27 61.0 °F /  16.1 °C 53.4 °F /  11.9 °C 30.12 in /  1019.9 hPa NW 1.3 mph /  2.1 km/h 2.3 mph /  3.7 km/h 76 % 0.00 in /  0 mm
00:32 60.9 °F /  16.1 °C 53.3 °F /  11.8 °C 30.12 in /  1019.9 hPa Calm   2.0 mph /  3.2 km/h 76 % 0.00 in /  0 mm
00:37 60.9 °F /  16.1 °C 53.6 °F /  12 °C 30.13 in /  1020.2 hPa NW 1.0 mph /  1.6 km/h 2.3 mph /  3.7 km/h 77 % 0.00 in /  0 mm
00:42 60.8 °F /  16 °C 53.9 °F /  12.2 °C 30.13 in /  1020.2 hPa NNW 0.6 mph /  1 km/h 1.0 mph /  1.6 km/h 78 % 0.00 in /  0 mm
00:47 60.8 °F /  16 °C 53.9 °F /  12.2 °C 30.13 in /  1020.2 hPa NNE 0.6 mph /  1 km/h 4.0 mph /  6.4 km/h 78 % 0.00 in /  0 mm
00:52 60.7 °F /  15.9 °C 53.8 °F /  12.1 °C 30.13 in /  1020.2 hPa NNW 1.0 mph /  1.6 km/h 1.2 mph /  1.9 km/h 78 % 0.00 in /  0 mm
00:58 60.7 °F /  15.9 °C 54.1 °F /  12.3 °C 30.13 in /  1020.2 hPa NNE 0.1 mph /  0.2 km/h 2.3 mph /  3.7 km/h 79 % 0.00 in /  0 mm
01:03 60.6 °F /  15.9 °C 54.0 °F /  12.2 °C 30.13 in /  1020.2 hPa WNW 1.7 mph /  2.7 km/h 3.5 mph /  5.6 km/h 79 % 0.00 in /  0 mm
01:08 60.5 °F /  15.8 °C 53.6 °F /  12 °C 30.13 in /  1020.2 hPa WNW 1.1 mph /  1.8 km/h 3.5 mph /  5.6 km/h 78 % 0.00 in /  0 mm
01:13 60.5 °F /  15.8 °C 53.6 °F /  12 °C 30.13 in /  1020.2 hPa WNW 0.4 mph /  0.6 km/h 3.5 mph /  5.6 km/h 78 % 0.00 in /  0 mm
01:18 60.4 °F /  15.8 °C 53.9 °F /  12.2 °C 30.13 in /  1020.2 hPa WNW 0.9 mph /  1.4 km/h 3.5 mph /  5.6 km/h 79 % 0.00 in /  0 mm
01:23 60.3 °F /  15.7 °C 53.8 °F /  12.1 °C 30.12 in /  1019.9 hPa WNW 0.1 mph /  0.2 km/h 2.3 mph /  3.7 km/h 79 % 0.00 in /  0 mm
01:28 60.2 °F /  15.7 °C 53.7 °F /  12.1 °C 30.12 in /  1019.9 hPa WNW 0.1 mph /  0.2 km/h 1.2 mph /  1.9 km/h 79 % 0.00 in /  0 mm
01:33 60.1 °F /  15.6 °C 53.6 °F /  12 °C 30.13 in /  1020.2 hPa WNW 0.9 mph /  1.4 km/h 3.5 mph /  5.6 km/h 79 % 0.00 in /  0 mm
01:38 60.0 °F /  15.6 °C 53.8 °F /  12.1 °C 30.13 in /  1020.2 hPa NNW 0.6 mph /  1 km/h 3.5 mph /  5.6 km/h 80 % 0.00 in /  0 mm
01:43 59.9 °F /  15.5 °C 54.1 °F /  12.3 °C 30.12 in /  1019.9 hPa Calm     81 % 0.00 in /  0 mm
01:48 59.8 °F /  15.4 °C 54.0 °F /  12.2 °C 30.12 in /  1019.9 hPa WNW 0.5 mph /  0.8 km/h 2.3 mph /  3.7 km/h 81 % 0.00 in /  0 mm
01:53 59.6 °F /  15.3 °C 53.8 °F /  12.1 °C 30.13 in /  1020.2 hPa Calm   1.2 mph /  1.9 km/h 81 % 0.00 in /  0 mm
01:58 59.5 °F /  15.3 °C 54.0 °F /  12.2 °C 30.13 in /  1020.2 hPa Calm     82 % 0.00 in /  0 mm
01:59 59.5 °F /  15.3 °C 54.0 °F /  12.2 °C 30.13 in /  1020.2 hPa Calm     82 % 0.00 in /  0 mm
02:04 59.4 °F /  15.2 °C 53.9 °F /  12.2 °C 30.13 in /  1020.2 hPa WNW 1.5 mph /  2.4 km/h 2.3 mph /  3.7 km/h 82 % 0.00 in /  0 mm
02:09 59.3 °F /  15.2 °C 53.8 °F /  12.1 °C 30.13 in /  1020.2 hPa WNW 1.1 mph /  1.8 km/h 3.5 mph /  5.6 km/h 82 % 0.00 in /  0 mm
02:14 59.2 °F /  15.1 °C 53.7 °F /  12.1 °C 30.13 in /  1020.2 hPa WNW 0.1 mph /  0.2 km/h 1.0 mph /  1.6 km/h 82 % 0.00 in /  0 mm
02:19 59.1 °F /  15.1 °C 53.9 °F /  12.2 °C 30.13 in /  1020.2 hPa WNW 1.3 mph /  2.1 km/h 3.5 mph /  5.6 km/h 83 % 0.00 in /  0 mm
02:24 59.0 °F /  15 °C 53.8 °F /  12.1 °C 30.13 in /  1020.2 hPa WNW 0.7 mph /  1.1 km/h 2.3 mph /  3.7 km/h 83 % 0.00 in /  0 mm
02:29 58.9 °F /  14.9 °C 54.1 °F /  12.3 °C 30.13 in /  1020.2 hPa WNW 0.6 mph /  1 km/h 3.5 mph /  5.6 km/h 84 % 0.00 in /  0 mm
02:34 58.7 °F /  14.8 °C 53.9 °F /  12.2 °C 30.13 in /  1020.2 hPa WNW 0.5 mph /  0.8 km/h 2.3 mph /  3.7 km/h 84 % 0.00 in /  0 mm
02:39 58.7 °F /  14.8 °C 53.9 °F /  12.2 °C 30.13 in /  1020.2 hPa WNW 1.3 mph /  2.1 km/h 3.0 mph /  4.8 km/h 84 % 0.00 in /  0 mm
02:44 58.6 °F /  14.8 °C 53.8 °F /  12.1 °C 30.13 in /  1020.2 hPa NNW 0.3 mph /  0.5 km/h 3.5 mph /  5.6 km/h 84 % 0.00 in /  0 mm
02:49 58.5 °F /  14.7 °C 54.0 °F /  12.2 °C 30.13 in /  1020.2 hPa Calm   2.3 mph /  3.7 km/h 85 % 0.00 in /  0 mm
02:54 58.4 °F /  14.7 °C 53.6 °F /  12 °C 30.14 in /  1020.5 hPa NNW 0.7 mph /  1.1 km/h 2.0 mph /  3.2 km/h 84 % 0.00 in /  0 mm
02:59 58.3 °F /  14.6 °C 53.8 °F /  12.1 °C 30.13 in /  1020.2 hPa NW 0.1 mph /  0.2 km/h 3.5 mph /  5.6 km/h 85 % 0.00 in /  0 mm
03:04 58.3 °F /  14.6 °C 53.8 °F /  12.1 °C 30.14 in /  1020.5 hPa NW 0.3 mph /  0.5 km/h 1.2 mph /  1.9 km/h 85 % 0.00 in /  0 mm
03:09 58.2 °F /  14.6 °C 53.7 °F /  12.1 °C 30.13 in /  1020.2 hPa NW 0.5 mph /  0.8 km/h 2.0 mph /  3.2 km/h 85 % 0.00 in /  0 mm
03:14 58.2 °F /  14.6 °C 53.7 °F /  12.1 °C 30.13 in /  1020.2 hPa NNW 1.0 mph /  1.6 km/h 3.5 mph /  5.6 km/h 85 % 0.00 in /  0 mm
03:19 58.2 °F /  14.6 °C 53.7 °F /  12.1 °C 30.13 in /  1020.2 hPa Calm   1.2 mph /  1.9 km/h 85 % 0.00 in /  0 mm
03:24 58.1 °F /  14.5 °C 53.3 °F /  11.8 °C 30.13 in /  1020.2 hPa Calm   1.2 mph /  1.9 km/h 84 % 0.00 in /  0 mm
03:29 58.1 °F /  14.5 °C 53.6 °F /  12 °C 30.13 in /  1020.2 hPa Calm   2.3 mph /  3.7 km/h 85 % 0.00 in /  0 mm
03:34 58.1 °F /  14.5 °C 53.6 °F /  12 °C 30.13 in /  1020.2 hPa NW 0.1 mph /  0.2 km/h 2.3 mph /  3.7 km/h 85 % 0.00 in /  0 mm
03:39 58.1 °F /  14.5 °C 53.6 °F /  12 °C 30.14 in /  1020.5 hPa NNE 0.4 mph /  0.6 km/h 3.5 mph /  5.6 km/h 85 % 0.00 in /  0 mm
03:44 58.1 °F /  14.5 °C 53.6 °F /  12 °C 30.14 in /  1020.5 hPa NW 0.3 mph /  0.5 km/h 3.5 mph /  5.6 km/h 85 % 0.00 in /  0 mm
03:49 58.1 °F /  14.5 °C 53.6 °F /  12 °C 30.13 in /  1020.2 hPa North 0.7 mph /  1.1 km/h 3.0 mph /  4.8 km/h 85 % 0.00 in /  0 mm
03:54 58.0 °F /  14.4 °C 53.5 °F /  11.9 °C 30.14 in /  1020.5 hPa North 1.0 mph /  1.6 km/h 5.0 mph /  8 km/h 85 % 0.00 in /  0 mm
03:59 58.0 °F /  14.4 °C 53.5 °F /  11.9 °C 30.14 in /  1020.5 hPa NNE 0.8 mph /  1.3 km/h 3.0 mph /  4.8 km/h 85 % 0.00 in /  0 mm
04:04 58.0 °F /  14.4 °C 53.5 °F /  11.9 °C 30.14 in /  1020.5 hPa NNW 1.0 mph /  1.6 km/h 4.6 mph /  7.4 km/h 85 % 0.00 in /  0 mm
04:05 58.0 °F /  14.4 °C 53.5 °F /  11.9 °C 30.14 in /  1020.5 hPa NNW 0.3 mph /  0.5 km/h 3.5 mph /  5.6 km/h 85 % 0.00 in /  0 mm
04:10 58.0 °F /  14.4 °C 53.5 °F /  11.9 °C 30.14 in /  1020.5 hPa North 1.4 mph /  2.3 km/h 2.3 mph /  3.7 km/h 85 % 0.00 in /  0 mm
04:15 58.0 °F /  14.4 °C 53.5 °F /  11.9 °C 30.14 in /  1020.5 hPa NNW 1.1 mph /  1.8 km/h 3.5 mph /  5.6 km/h 85 % 0.00 in /  0 mm
04:20 58.0 °F /  14.4 °C 53.5 °F /  11.9 °C 30.14 in /  1020.5 hPa NE 1.5 mph /  2.4 km/h 5.8 mph /  9.3 km/h 85 % 0.00 in /  0 mm
04:26 58.0 °F /  14.4 °C 53.5 °F /  11.9 °C 30.15 in /  1020.9 hPa NNE 2.3 mph /  3.7 km/h 8.1 mph /  13 km/h 85 % 0.00 in /  0 mm
04:29 58.1 °F /  14.5 °C 53.3 °F /  11.8 °C 30.14 in /  1020.5 hPa North 3.8 mph /  6.1 km/h 5.8 mph /  9.3 km/h 84 % 0.00 in /  0 mm
04:34 58.1 °F /  14.5 °C 53.0 °F /  11.7 °C 30.14 in /  1020.5 hPa NNW 0.1 mph /  0.2 km/h 6.9 mph /  11.1 km/h 83 % 0.00 in /  0 mm
04:39 58.1 °F /  14.5 °C 53.3 °F /  11.8 °C 30.14 in /  1020.5 hPa North 1.7 mph /  2.7 km/h 3.5 mph /  5.6 km/h 84 % 0.00 in /  0 mm
04:44 58.1 °F /  14.5 °C 53.0 °F /  11.7 °C 30.14 in /  1020.5 hPa North 4.1 mph /  6.6 km/h 5.0 mph /  8 km/h 83 % 0.00 in /  0 mm
04:49 58.2 °F /  14.6 °C 53.1 °F /  11.7 °C 30.15 in /  1020.9 hPa NNE 3.2 mph /  5.1 km/h 5.0 mph /  8 km/h 83 % 0.00 in /  0 mm
04:54 58.2 °F /  14.6 °C 52.7 °F /  11.5 °C 30.15 in /  1020.9 hPa North 0.1 mph /  0.2 km/h 2.3 mph /  3.7 km/h 82 % 0.00 in /  0 mm
04:59 58.2 °F /  14.6 °C 52.7 °F /  11.5 °C 30.15 in /  1020.9 hPa NNW 2.8 mph /  4.5 km/h 6.9 mph /  11.1 km/h 82 % 0.00 in /  0 mm
05:04 58.3 °F /  14.6 °C 52.8 °F /  11.6 °C 30.15 in /  1020.9 hPa North 3.2 mph /  5.1 km/h 5.8 mph /  9.3 km/h 82 % 0.00 in /  0 mm
05:09 58.3 °F /  14.6 °C 52.5 °F /  11.4 °C 30.15 in /  1020.9 hPa NNE 1.2 mph /  1.9 km/h 8.1 mph /  13 km/h 81 % 0.00 in /  0 mm
05:14 58.3 °F /  14.6 °C 52.5 °F /  11.4 °C 30.15 in /  1020.9 hPa North 5.3 mph /  8.5 km/h 9.2 mph /  14.8 km/h 81 % 0.00 in /  0 mm
05:20 58.3 °F /  14.6 °C 52.5 °F /  11.4 °C 30.15 in /  1020.9 hPa WNW 3.5 mph /  5.6 km/h 6.9 mph /  11.1 km/h 81 % 0.00 in /  0 mm
05:25 58.3 °F /  14.6 °C 52.5 °F /  11.4 °C 30.15 in /  1020.9 hPa ENE 3.3 mph /  5.3 km/h 8.1 mph /  13 km/h 81 % 0.00 in /  0 mm
05:30 58.3 °F /  14.6 °C 52.5 °F /  11.4 °C 30.15 in /  1020.9 hPa NNE 3.3 mph /  5.3 km/h 8.0 mph /  12.9 km/h 81 % 0.00 in /  0 mm
05:35 58.4 °F /  14.7 °C 52.6 °F /  11.4 °C 30.15 in /  1020.9 hPa NNW 2.9 mph /  4.7 km/h 8.1 mph /  13 km/h 81 % 0.00 in /  0 mm
05:40 58.4 °F /  14.7 °C 52.6 °F /  11.4 °C 30.15 in /  1020.9 hPa NNW 4.1 mph /  6.6 km/h 8.1 mph /  13 km/h 81 % 0.00 in /  0 mm
05:45 58.4 °F /  14.7 °C 52.6 °F /  11.4 °C 30.16 in /  1021.2 hPa NW 2.4 mph /  3.9 km/h 6.0 mph /  9.7 km/h 81 % 0.00 in /  0 mm
05:50 58.4 °F /  14.7 °C 52.6 °F /  11.4 °C 30.16 in /  1021.2 hPa North 3.6 mph /  5.8 km/h 5.8 mph /  9.3 km/h 81 % 0.00 in /  0 mm
05:55 58.4 °F /  14.7 °C 52.3 °F /  11.3 °C 30.16 in /  1021.2 hPa West 5.4 mph /  8.7 km/h 7.0 mph /  11.3 km/h 80 % 0.00 in /  0 mm
06:00 58.3 °F /  14.6 °C 52.2 °F /  11.2 °C 30.16 in /  1021.2 hPa North 5.2 mph /  8.4 km/h 10.4 mph /  16.7 km/h 80 % 0.00 in /  0 mm
06:05 58.3 °F /  14.6 °C 52.2 °F /  11.2 °C 30.16 in /  1021.2 hPa NW 4.3 mph /  6.9 km/h 10.4 mph /  16.7 km/h 80 % 0.00 in /  0 mm
06:10 58.3 °F /  14.6 °C 52.2 °F /  11.2 °C 30.16 in /  1021.2 hPa North 5.2 mph /  8.4 km/h 11.5 mph /  18.5 km/h 80 % 0.00 in /  0 mm
06:15 58.2 °F /  14.6 °C 52.1 °F /  11.2 °C 30.16 in /  1021.2 hPa NW 3.8 mph /  6.1 km/h 10.4 mph /  16.7 km/h 80 % 0.00 in /  0 mm
06:21 58.2 °F /  14.6 °C 52.1 °F /  11.2 °C 30.17 in /  1021.6 hPa North 6.0 mph /  9.7 km/h 10.0 mph /  16.1 km/h 80 % 0.00 in /  0 mm
06:26 58.2 °F /  14.6 °C 52.0 °F /  11.1 °C 30.17 in /  1021.6 hPa North 5.0 mph /  8 km/h 13.0 mph /  20.9 km/h 80 % 0.00 in /  0 mm
06:31 58.1 °F /  14.5 °C 52.3 °F /  11.3 °C 30.17 in /  1021.6 hPa North 6.0 mph /  9.7 km/h 10.0 mph /  16.1 km/h 81 % 0.00 in /  0 mm
06:36 58.1 °F /  14.5 °C 52.0 °F /  11.1 °C 30.17 in /  1021.6 hPa North 5.0 mph /  8 km/h 9.0 mph /  14.5 km/h 80 % 0.00 in /  0 mm
06:41 58.1 °F /  14.5 °C 52.3 °F /  11.3 °C 30.17 in /  1021.6 hPa North 5.0 mph /  8 km/h 9.0 mph /  14.5 km/h 81 % 0.00 in /  0 mm
06:46 58.0 °F /  14.4 °C 52.2 °F /  11.2 °C 30.18 in /  1021.9 hPa NNW 5.0 mph /  8 km/h 9.0 mph /  14.5 km/h 81 % 0.00 in /  0 mm
06:51 58.0 °F /  14.4 °C 52.2 °F /  11.2 °C 30.18 in /  1021.9 hPa North 2.0 mph /  3.2 km/h 8.0 mph /  12.9 km/h 81 % 0.00 in /  0 mm
06:56 57.9 °F /  14.4 °C 52.1 °F /  11.2 °C 30.18 in /  1021.9 hPa NNE 5.0 mph /  8 km/h 8.0 mph /  12.9 km/h 81 % 0.00 in /  0 mm
07:01 57.9 °F /  14.4 °C 51.8 °F /  11 °C 30.18 in /  1021.9 hPa North 4.2 mph /  6.8 km/h 9.2 mph /  14.8 km/h 80 % 0.00 in /  0 mm
07:06 57.9 °F /  14.4 °C 51.8 °F /  11 °C 30.18 in /  1021.9 hPa NNW 5.9 mph /  9.5 km/h 10.4 mph /  16.7 km/h 80 % 0.00 in /  0 mm
07:11 57.9 °F /  14.4 °C 52.1 °F /  11.2 °C 30.18 in /  1021.9 hPa NNW 3.0 mph /  4.8 km/h 4.6 mph /  7.4 km/h 81 % 0.00 in /  0 mm
07:16 57.9 °F /  14.4 °C 52.1 °F /  11.2 °C 30.18 in /  1021.9 hPa NNE 6.3 mph /  10.1 km/h 10.4 mph /  16.7 km/h 81 % 0.00 in /  0 mm
07:21 57.9 °F /  14.4 °C 52.1 °F /  11.2 °C 30.19 in /  1022.2 hPa NNW 4.6 mph /  7.4 km/h 8.1 mph /  13 km/h 81 % 0.00 in /  0 mm
07:26 58.0 °F /  14.4 °C 52.5 °F /  11.4 °C 30.19 in /  1022.2 hPa North 2.9 mph /  4.7 km/h 6.9 mph /  11.1 km/h 82 % 0.00 in /  0 mm
07:31 58.0 °F /  14.4 °C 52.5 °F /  11.4 °C 30.18 in /  1021.9 hPa North 5.4 mph /  8.7 km/h 9.2 mph /  14.8 km/h 82 % 0.00 in /  0 mm
07:36 58.0 °F /  14.4 °C 52.2 °F /  11.2 °C 30.19 in /  1022.2 hPa North 1.1 mph /  1.8 km/h 5.8 mph /  9.3 km/h 81 % 0.00 in /  0 mm
07:41 58.0 °F /  14.4 °C 52.5 °F /  11.4 °C 30.19 in /  1022.2 hPa North 4.5 mph /  7.2 km/h 9.2 mph /  14.8 km/h 82 % 0.00 in /  0 mm
07:46 58.0 °F /  14.4 °C 52.2 °F /  11.2 °C 30.19 in /  1022.2 hPa North 3.4 mph /  5.5 km/h 3.5 mph /  5.6 km/h 81 % 0.00 in /  0 mm
07:51 58.1 °F /  14.5 °C 52.6 °F /  11.4 °C 30.19 in /  1022.2 hPa North 4.1 mph /  6.6 km/h 9.0 mph /  14.5 km/h 82 % 0.00 in /  0 mm
07:56 58.3 °F /  14.6 °C 52.5 °F /  11.4 °C 30.19 in /  1022.2 hPa NW 4.2 mph /  6.8 km/h 9.2 mph /  14.8 km/h 81 % 0.00 in /  0 mm
08:01 58.4 °F /  14.7 °C 52.6 °F /  11.4 °C 30.19 in /  1022.2 hPa North 7.3 mph /  11.7 km/h 8.1 mph /  13 km/h 81 % 0.00 in /  0 mm
08:07 58.5 °F /  14.7 °C 52.7 °F /  11.5 °C 30.19 in /  1022.2 hPa NNE 3.8 mph /  6.1 km/h 9.2 mph /  14.8 km/h 81 % 0.00 in /  0 mm
08:12 58.6 °F /  14.8 °C 52.8 °F /  11.6 °C 30.19 in /  1022.2 hPa North 4.9 mph /  7.9 km/h 5.8 mph /  9.3 km/h 81 % 0.00 in /  0 mm
08:17 58.6 °F /  14.8 °C 52.8 °F /  11.6 °C 30.19 in /  1022.2 hPa NNE 5.7 mph /  9.2 km/h 11.5 mph /  18.5 km/h 81 % 0.00 in /  0 mm
08:22 58.7 °F /  14.8 °C 52.5 °F /  11.4 °C 30.19 in /  1022.2 hPa NNE 5.8 mph /  9.3 km/h 10.4 mph /  16.7 km/h 80 % 0.00 in /  0 mm
08:27 58.9 °F /  14.9 °C 52.7 °F /  11.5 °C 30.19 in /  1022.2 hPa NE 5.6 mph /  9 km/h 10.4 mph /  16.7 km/h 80 % 0.00 in /  0 mm
08:32 58.9 °F /  14.9 °C 52.7 °F /  11.5 °C 30.19 in /  1022.2 hPa NE 2.8 mph /  4.5 km/h 5.0 mph /  8 km/h 80 % 0.00 in /  0 mm
08:37 59.0 °F /  15 °C 52.8 °F /  11.6 °C 30.20 in /  1022.6 hPa North 6.3 mph /  10.1 km/h 9.2 mph /  14.8 km/h 80 % 0.00 in /  0 mm
08:42 59.1 °F /  15.1 °C 52.9 °F /  11.6 °C 30.20 in /  1022.6 hPa NNE 2.5 mph /  4 km/h 5.8 mph /  9.3 km/h 80 % 0.00 in /  0 mm
08:47 59.3 °F /  15.2 °C 53.1 °F /  11.7 °C 30.20 in /  1022.6 hPa NE 1.9 mph /  3.1 km/h 5.8 mph /  9.3 km/h 80 % 0.00 in /  0 mm
08:52 59.4 °F /  15.2 °C 53.2 °F /  11.8 °C 30.20 in /  1022.6 hPa ENE 4.0 mph /  6.4 km/h 4.0 mph /  6.4 km/h 80 % 0.00 in /  0 mm
08:57 59.5 °F /  15.3 °C 53.0 °F /  11.7 °C 30.20 in /  1022.6 hPa North 3.4 mph /  5.5 km/h 6.9 mph /  11.1 km/h 79 % 0.00 in /  0 mm
09:03 59.7 °F /  15.4 °C 53.2 °F /  11.8 °C 30.20 in /  1022.6 hPa NNW 5.6 mph /  9 km/h 8.1 mph /  13 km/h 79 % 0.00 in /  0 mm
09:08 59.8 °F /  15.4 °C 52.9 °F /  11.6 °C 30.20 in /  1022.6 hPa NNW 4.3 mph /  6.9 km/h 11.5 mph /  18.5 km/h 78 % 0.00 in /  0 mm
09:13 59.8 °F /  15.4 °C 52.6 °F /  11.4 °C 30.20 in /  1022.6 hPa NNE 4.2 mph /  6.8 km/h 9.2 mph /  14.8 km/h 77 % 0.00 in /  0 mm
09:18 59.9 °F /  15.5 °C 53.0 °F /  11.7 °C 30.21 in /  1022.9 hPa WNW 3.0 mph /  4.8 km/h 7.0 mph /  11.3 km/h 78 % 0.00 in /  0 mm
09:23 60.0 °F /  15.6 °C 53.1 °F /  11.7 °C 30.21 in /  1022.9 hPa NNW 4.8 mph /  7.7 km/h 5.8 mph /  9.3 km/h 78 % 0.00 in /  0 mm
09:28 60.1 °F /  15.6 °C 52.9 °F /  11.6 °C 30.21 in /  1022.9 hPa NNW 2.4 mph /  3.9 km/h 4.6 mph /  7.4 km/h 77 % 0.00 in /  0 mm
09:33 60.2 °F /  15.7 °C 53.0 °F /  11.7 °C 30.21 in /  1022.9 hPa NNE 2.1 mph /  3.4 km/h 3.5 mph /  5.6 km/h 77 % 0.00 in /  0 mm
09:38 60.4 °F /  15.8 °C 52.8 °F /  11.6 °C 30.22 in /  1023.2 hPa NNE 2.9 mph /  4.7 km/h 5.8 mph /  9.3 km/h 76 % 0.00 in /  0 mm
09:43 60.6 °F /  15.9 °C 53.3 °F /  11.8 °C 30.22 in /  1023.2 hPa NNE 1.4 mph /  2.3 km/h 4.6 mph /  7.4 km/h 77 % 0.00 in /  0 mm
09:48 61.0 °F /  16.1 °C 53.4 °F /  11.9 °C 30.22 in /  1023.2 hPa NW 2.2 mph /  3.5 km/h 4.0 mph /  6.4 km/h 76 % 0.00 in /  0 mm
09:53 61.6 °F /  16.4 °C 54.3 °F /  12.4 °C 30.22 in /  1023.2 hPa NNE 0.2 mph /  0.3 km/h 1.2 mph /  1.9 km/h 77 % 0.00 in /  0 mm
09:58 62.0 °F /  16.7 °C 53.2 °F /  11.8 °C 30.22 in /  1023.2 hPa NNW 1.8 mph /  2.9 km/h 3.5 mph /  5.6 km/h 73 % 0.00 in /  0 mm
10:03 62.3 °F /  16.8 °C 53.2 °F /  11.8 °C 30.22 in /  1023.2 hPa NW 3.7 mph /  6 km/h 5.8 mph /  9.3 km/h 72 % 0.00 in /  0 mm
10:08 62.6 °F /  17 °C 53.1 °F /  11.7 °C 30.22 in /  1023.2 hPa North 4.3 mph /  6.9 km/h 6.9 mph /  11.1 km/h 71 % 0.00 in /  0 mm
10:13 62.8 °F /  17.1 °C 53.3 °F /  11.8 °C 30.22 in /  1023.2 hPa NNW 1.1 mph /  1.8 km/h 4.6 mph /  7.4 km/h 71 % 0.00 in /  0 mm
10:18 62.9 °F /  17.2 °C 53.7 °F /  12.1 °C 30.22 in /  1023.2 hPa NNE 4.3 mph /  6.9 km/h 8.1 mph /  13 km/h 72 % 0.00 in /  0 mm
10:23 63.0 °F /  17.2 °C 53.1 °F /  11.7 °C 30.21 in /  1022.9 hPa NNE 5.1 mph /  8.2 km/h 8.1 mph /  13 km/h 70 % 0.00 in /  0 mm
10:28 63.0 °F /  17.2 °C 53.1 °F /  11.7 °C 30.22 in /  1023.2 hPa NNE 5.5 mph /  8.9 km/h 9.0 mph /  14.5 km/h 70 % 0.00 in /  0 mm
10:33 63.1 °F /  17.3 °C 53.5 °F /  11.9 °C 30.22 in /  1023.2 hPa ENE 2.2 mph /  3.5 km/h 5.8 mph /  9.3 km/h 71 % 0.00 in /  0 mm
10:38 63.2 °F /  17.3 °C 53.3 °F /  11.8 °C 30.22 in /  1023.2 hPa NNE 5.1 mph /  8.2 km/h 6.0 mph /  9.7 km/h 70 % 0.00 in /  0 mm
10:43 63.3 °F /  17.4 °C 53.7 °F /  12.1 °C 30.21 in /  1022.9 hPa NNW 2.7 mph /  4.3 km/h 5.0 mph /  8 km/h 71 % 0.00 in /  0 mm
10:48 63.5 °F /  17.5 °C 53.1 °F /  11.7 °C 30.22 in /  1023.2 hPa North 2.1 mph /  3.4 km/h 5.0 mph /  8 km/h 69 % 0.00 in /  0 mm
10:54 63.9 °F /  17.7 °C 53.9 °F /  12.2 °C 30.21 in /  1022.9 hPa NNE 3.6 mph /  5.8 km/h 4.0 mph /  6.4 km/h 70 % 0.00 in /  0 mm
10:59 64.2 °F /  17.9 °C 54.2 °F /  12.3 °C 30.21 in /  1022.9 hPa North 2.4 mph /  3.9 km/h 2.4 mph /  3.9 km/h 70 % 0.00 in /  0 mm
11:04 64.7 °F /  18.2 °C 53.9 °F /  12.2 °C 30.21 in /  1022.9 hPa NNW 3.9 mph /  6.3 km/h 8.0 mph /  12.9 km/h 68 % 0.00 in /  0 mm
11:09 65.3 °F /  18.5 °C 54.1 °F /  12.3 °C 30.21 in /  1022.9 hPa North 4.6 mph /  7.4 km/h 8.1 mph /  13 km/h 67 % 0.00 in /  0 mm
11:14 66.0 °F /  18.9 °C 53.9 °F /  12.2 °C 30.21 in /  1022.9 hPa NNE 3.3 mph /  5.3 km/h 9.2 mph /  14.8 km/h 65 % 0.00 in /  0 mm
11:19 66.9 °F /  19.4 °C 54.3 °F /  12.4 °C 30.21 in /  1022.9 hPa NNE 5.4 mph /  8.7 km/h 7.0 mph /  11.3 km/h 64 % 0.00 in /  0 mm
11:24 67.8 °F /  19.9 °C 55.2 °F /  12.9 °C 30.21 in /  1022.9 hPa NNW 2.4 mph /  3.9 km/h 5.8 mph /  9.3 km/h 64 % 0.00 in /  0 mm
11:29 68.8 °F /  20.4 °C 54.3 °F /  12.4 °C 30.21 in /  1022.9 hPa NNE 4.3 mph /  6.9 km/h 9.0 mph /  14.5 km/h 60 % 0.00 in /  0 mm
11:34 69.4 °F /  20.8 °C 54.9 °F /  12.7 °C 30.21 in /  1022.9 hPa NE 3.5 mph /  5.6 km/h 8.1 mph /  13 km/h 60 % 0.00 in /  0 mm
11:39 70.1 °F /  21.2 °C 54.2 °F /  12.3 °C 30.20 in /  1022.6 hPa NNE 4.0 mph /  6.4 km/h 6.0 mph /  9.7 km/h 57 % 0.00 in /  0 mm
11:44 70.8 °F /  21.6 °C 55.3 °F /  12.9 °C 30.21 in /  1022.9 hPa North 3.1 mph /  5 km/h 6.9 mph /  11.1 km/h 58 % 0.00 in /  0 mm
11:49 71.3 °F /  21.8 °C 55.8 °F /  13.2 °C 30.21 in /  1022.9 hPa North 3.9 mph /  6.3 km/h 8.1 mph /  13 km/h 58 % 0.00 in /  0 mm
11:54 71.8 °F /  22.1 °C 54.8 °F /  12.7 °C 30.21 in /  1022.9 hPa NW 2.4 mph /  3.9 km/h 4.6 mph /  7.4 km/h 55 % 0.00 in /  0 mm
11:59 71.8 °F /  22.1 °C 54.8 °F /  12.7 °C 30.21 in /  1022.9 hPa NNW 2.1 mph /  3.4 km/h 5.8 mph /  9.3 km/h 55 % 0.00 in /  0 mm
12:04 72.0 °F /  22.2 °C 55.4 °F /  13 °C 30.21 in /  1022.9 hPa NNW 2.0 mph /  3.2 km/h 4.6 mph /  7.4 km/h 56 % 0.00 in /  0 mm
12:10 72.5 °F /  22.5 °C 56.4 °F /  13.6 °C 30.21 in /  1022.9 hPa NNE 3.3 mph /  5.3 km/h 5.8 mph /  9.3 km/h 57 % 0.00 in /  0 mm
12:15 72.7 °F /  22.6 °C 54.1 °F /  12.3 °C 30.21 in /  1022.9 hPa NNW 2.8 mph /  4.5 km/h 6.0 mph /  9.7 km/h 52 % 0.00 in /  0 mm
12:20 73.0 °F /  22.8 °C 55.9 °F /  13.3 °C 30.21 in /  1022.9 hPa North 0.8 mph /  1.3 km/h 5.0 mph /  8 km/h 55 % 0.00 in /  0 mm
12:23 73.1 °F /  22.8 °C 55.5 °F /  13.1 °C 30.21 in /  1022.9 hPa NNE 7.0 mph /  11.3 km/h 9.2 mph /  14.8 km/h 54 % 0.00 in /  0 mm
12:28 73.0 °F /  22.8 °C 54.3 °F /  12.4 °C 30.21 in /  1022.9 hPa NNE 5.5 mph /  8.9 km/h 8.1 mph /  13 km/h 52 % 0.00 in /  0 mm
12:33 72.9 °F /  22.7 °C 56.3 °F /  13.5 °C 30.21 in /  1022.9 hPa NNE 3.3 mph /  5.3 km/h 6.9 mph /  11.1 km/h 56 % 0.00 in /  0 mm
12:38 73.1 °F /  22.8 °C 56.0 °F /  13.3 °C 30.21 in /  1022.9 hPa NW 3.8 mph /  6.1 km/h 6.9 mph /  11.1 km/h 55 % 0.00 in /  0 mm
12:43 73.3 °F /  22.9 °C 55.1 °F /  12.8 °C 30.20 in /  1022.6 hPa NNW 3.3 mph /  5.3 km/h 6.9 mph /  11.1 km/h 53 % 0.00 in /  0 mm
12:48 73.4 °F /  23 °C 55.2 °F /  12.9 °C 30.21 in /  1022.9 hPa North 1.3 mph /  2.1 km/h 3.5 mph /  5.6 km/h 53 % 0.00 in /  0 mm
12:53 73.4 °F /  23 °C 55.2 °F /  12.9 °C 30.20 in /  1022.6 hPa NNE 5.1 mph /  8.2 km/h 7.0 mph /  11.3 km/h 53 % 0.00 in /  0 mm
12:58 73.7 °F /  23.2 °C 56.0 °F /  13.3 °C 30.21 in /  1022.9 hPa North 4.5 mph /  7.2 km/h 8.1 mph /  13 km/h 54 % 0.00 in /  0 mm
13:03 73.9 °F /  23.3 °C 55.2 °F /  12.9 °C 30.21 in /  1022.9 hPa North 4.2 mph /  6.8 km/h 6.9 mph /  11.1 km/h 52 % 0.00 in /  0 mm
13:08 74.0 °F /  23.3 °C 55.3 °F /  12.9 °C 30.21 in /  1022.9 hPa North 2.1 mph /  3.4 km/h 3.5 mph /  5.6 km/h 52 % 0.00 in /  0 mm
13:13 74.1 °F /  23.4 °C 55.3 °F /  12.9 °C 30.21 in /  1022.9 hPa NW 3.5 mph /  5.6 km/h 8.1 mph /  13 km/h 52 % 0.00 in /  0 mm
13:18 73.9 °F /  23.3 °C 55.2 °F /  12.9 °C 30.21 in /  1022.9 hPa NNW 2.4 mph /  3.9 km/h 5.8 mph /  9.3 km/h 52 % 0.00 in /  0 mm
13:23 73.6 °F /  23.1 °C 54.9 °F /  12.7 °C 30.21 in /  1022.9 hPa North 3.1 mph /  5 km/h 4.6 mph /  7.4 km/h 52 % 0.00 in /  0 mm
13:28 73.4 °F /  23 °C 55.7 °F /  13.2 °C 30.21 in /  1022.9 hPa NW 0.5 mph /  0.8 km/h 2.3 mph /  3.7 km/h 54 % 0.00 in /  0 mm
13:33 73.1 °F /  22.8 °C 56.0 °F /  13.3 °C 30.21 in /  1022.9 hPa North 3.0 mph /  4.8 km/h 4.6 mph /  7.4 km/h 55 % 0.00 in /  0 mm
13:38 73.5 °F /  23.1 °C 56.3 °F /  13.5 °C 30.20 in /  1022.6 hPa West 1.5 mph /  2.4 km/h 4.6 mph /  7.4 km/h 55 % 0.00 in /  0 mm
13:43 73.3 °F /  22.9 °C 55.1 °F /  12.8 °C 30.21 in /  1022.9 hPa North 2.4 mph /  3.9 km/h 3.5 mph /  5.6 km/h 53 % 0.00 in /  0 mm
13:48 73.1 °F /  22.8 °C 56.5 °F /  13.6 °C 30.20 in /  1022.6 hPa NW 2.7 mph /  4.3 km/h 4.6 mph /  7.4 km/h 56 % 0.00 in /  0 mm
13:53 73.1 °F /  22.8 °C 55.5 °F /  13.1 °C 30.20 in /  1022.6 hPa WNW 2.0 mph /  3.2 km/h 4.0 mph /  6.4 km/h 54 % 0.00 in /  0 mm
13:58 73.3 °F /  22.9 °C 56.2 °F /  13.4 °C 30.20 in /  1022.6 hPa NNW 4.4 mph /  7.1 km/h 6.9 mph /  11.1 km/h 55 % 0.00 in /  0 mm
14:03 73.4 °F /  23 °C 54.7 °F /  12.6 °C 30.20 in /  1022.6 hPa WNW 4.5 mph /  7.2 km/h 9.0 mph /  14.5 km/h 52 % 0.00 in /  0 mm
14:08 73.4 °F /  23 °C 56.2 °F /  13.4 °C 30.20 in /  1022.6 hPa NNE 2.0 mph /  3.2 km/h 4.6 mph /  7.4 km/h 55 % 0.00 in /  0 mm
14:13 73.6 °F /  23.1 °C 56.4 °F /  13.6 °C 30.20 in /  1022.6 hPa WNW 1.3 mph /  2.1 km/h 7.0 mph /  11.3 km/h 55 % 0.00 in /  0 mm
14:18 73.7 °F /  23.2 °C 55.5 °F /  13.1 °C 30.20 in /  1022.6 hPa WNW 4.6 mph /  7.4 km/h 5.8 mph /  9.3 km/h 53 % 0.00 in /  0 mm
14:23 73.8 °F /  23.2 °C 56.1 °F /  13.4 °C 30.19 in /  1022.2 hPa NW 4.9 mph /  7.9 km/h 6.9 mph /  11.1 km/h 54 % 0.00 in /  0 mm
14:28 73.8 °F /  23.2 °C 54.5 °F /  12.5 °C 30.19 in /  1022.2 hPa WNW 4.2 mph /  6.8 km/h 11.5 mph /  18.5 km/h 51 % 0.00 in /  0 mm
14:33 73.9 °F /  23.3 °C 56.2 °F /  13.4 °C 30.19 in /  1022.2 hPa WNW 2.1 mph /  3.4 km/h 5.8 mph /  9.3 km/h 54 % 0.00 in /  0 mm
14:38 73.9 °F /  23.3 °C 54.6 °F /  12.6 °C 30.19 in /  1022.2 hPa NNW 3.8 mph /  6.1 km/h 9.2 mph /  14.8 km/h 51 % 0.00 in /  0 mm
14:43 74.0 °F /  23.3 °C 56.3 °F /  13.5 °C 30.19 in /  1022.2 hPa North 3.5 mph /  5.6 km/h 6.0 mph /  9.7 km/h 54 % 0.00 in /  0 mm
14:48 74.1 °F /  23.4 °C 56.4 °F /  13.6 °C 30.19 in /  1022.2 hPa NW 3.7 mph /  6 km/h 4.6 mph /  7.4 km/h 54 % 0.00 in /  0 mm
14:53 74.0 °F /  23.3 °C 56.3 °F /  13.5 °C 30.19 in /  1022.2 hPa WNW 5.6 mph /  9 km/h 11.5 mph /  18.5 km/h 54 % 0.00 in /  0 mm
14:59 73.9 °F /  23.3 °C 55.2 °F /  12.9 °C 30.18 in /  1021.9 hPa WNW 1.6 mph /  2.6 km/h 4.6 mph /  7.4 km/h 52 % 0.00 in /  0 mm
15:04 73.6 °F /  23.1 °C 54.4 °F /  12.4 °C 30.18 in /  1021.9 hPa NNW 2.0 mph /  3.2 km/h 5.8 mph /  9.3 km/h 51 % 0.00 in /  0 mm
15:14 73.3 °F /  22.9 °C 55.6 °F /  13.1 °C 30.19 in /  1022.2 hPa North 3.8 mph /  6.1 km/h 6.9 mph /  11.1 km/h 54 % 0.00 in /  0 mm
15:19 73.2 °F /  22.9 °C 54.5 °F /  12.5 °C 30.19 in /  1022.2 hPa NNW 1.4 mph /  2.3 km/h 3.5 mph /  5.6 km/h 52 % 0.00 in /  0 mm
15:24 72.8 °F /  22.7 °C 54.7 °F /  12.6 °C 30.19 in /  1022.2 hPa North 2.2 mph /  3.5 km/h 6.9 mph /  11.1 km/h 53 % 0.00 in /  0 mm
15:29 72.0 °F /  22.2 °C 53.9 °F /  12.2 °C 30.19 in /  1022.2 hPa North 2.2 mph /  3.5 km/h 6.9 mph /  11.1 km/h 53 % 0.00 in /  0 mm
15:34 71.3 °F /  21.8 °C 53.3 °F /  11.8 °C 30.19 in /  1022.2 hPa NE 3.9 mph /  6.3 km/h 6.9 mph /  11.1 km/h 53 % 0.00 in /  0 mm
15:39 70.4 °F /  21.3 °C 53.5 °F /  11.9 °C 30.18 in /  1021.9 hPa NNE 4.1 mph /  6.6 km/h 6.9 mph /  11.1 km/h 55 % 0.00 in /  0 mm
15:44 69.9 °F /  21.1 °C 54.0 °F /  12.2 °C 30.19 in /  1022.2 hPa NE 3.5 mph /  5.6 km/h 6.0 mph /  9.7 km/h 57 % 0.00 in /  0 mm
15:49 69.7 °F /  20.9 °C 53.3 °F /  11.8 °C 30.18 in /  1021.9 hPa NE 4.1 mph /  6.6 km/h 8.0 mph /  12.9 km/h 56 % 0.00 in /  0 mm
15:54 69.8 °F /  21 °C 53.9 °F /  12.2 °C 30.18 in /  1021.9 hPa NE 4.9 mph /  7.9 km/h 9.2 mph /  14.8 km/h 57 % 0.00 in /  0 mm
15:59 69.7 °F /  20.9 °C 52.8 °F /  11.6 °C 30.18 in /  1021.9 hPa NNW 5.2 mph /  8.4 km/h 8.1 mph /  13 km/h 55 % 0.00 in /  0 mm
16:04 69.6 °F /  20.9 °C 53.7 °F /  12.1 °C 30.18 in /  1021.9 hPa NNE 4.2 mph /  6.8 km/h 5.0 mph /  8 km/h 57 % 0.00 in /  0 mm
16:10 69.5 °F /  20.8 °C 54.1 °F /  12.3 °C 30.19 in /  1022.2 hPa NNW 1.2 mph /  1.9 km/h 3.5 mph /  5.6 km/h 58 % 0.00 in /  0 mm
16:15 69.5 °F /  20.8 °C 52.6 °F /  11.4 °C 30.18 in /  1021.9 hPa WSW 4.1 mph /  6.6 km/h 11.5 mph /  18.5 km/h 55 % 0.00 in /  0 mm
16:20 69.5 °F /  20.8 °C 53.1 °F /  11.7 °C 30.18 in /  1021.9 hPa NNE 3.4 mph /  5.5 km/h 7.0 mph /  11.3 km/h 56 % 0.00 in /  0 mm
16:25 69.4 °F /  20.8 °C 53.5 °F /  11.9 °C 30.18 in /  1021.9 hPa North 3.1 mph /  5 km/h 5.8 mph /  9.3 km/h 57 % 0.00 in /  0 mm
16:30 69.5 °F /  20.8 °C 54.1 °F /  12.3 °C 30.18 in /  1021.9 hPa North 1.7 mph /  2.7 km/h 8.1 mph /  13 km/h 58 % 0.00 in /  0 mm
16:35 69.5 °F /  20.8 °C 53.1 °F /  11.7 °C 30.18 in /  1021.9 hPa NW 2.6 mph /  4.2 km/h 5.8 mph /  9.3 km/h 56 % 0.00 in /  0 mm
16:40 69.6 °F /  20.9 °C 52.7 °F /  11.5 °C 30.18 in /  1021.9 hPa NNW 0.9 mph /  1.4 km/h 5.8 mph /  9.3 km/h 55 % 0.00 in /  0 mm
16:45 69.4 °F /  20.8 °C 53.5 °F /  11.9 °C 30.18 in /  1021.9 hPa WNW 5.7 mph /  9.2 km/h 8.1 mph /  13 km/h 57 % 0.00 in /  0 mm
16:50 69.4 °F /  20.8 °C 54.0 °F /  12.2 °C 30.18 in /  1021.9 hPa NNW 3.5 mph /  5.6 km/h 9.2 mph /  14.8 km/h 58 % 0.00 in /  0 mm
16:55 69.4 °F /  20.8 °C 52.5 °F /  11.4 °C 30.18 in /  1021.9 hPa NNE 2.7 mph /  4.3 km/h 4.6 mph /  7.4 km/h 55 % 0.00 in /  0 mm
17:00 69.4 °F /  20.8 °C 53.0 °F /  11.7 °C 30.19 in /  1022.2 hPa West 0.9 mph /  1.4 km/h 3.5 mph /  5.6 km/h 56 % 0.00 in /  0 mm
17:05 69.3 °F /  20.7 °C 51.9 °F /  11.1 °C 30.19 in /  1022.2 hPa NNE 5.0 mph /  8 km/h 8.1 mph /  13 km/h 54 % 0.00 in /  0 mm
17:10 68.9 °F /  20.5 °C 53.5 °F /  11.9 °C 30.19 in /  1022.2 hPa North 3.3 mph /  5.3 km/h 9.0 mph /  14.5 km/h 58 % 0.00 in /  0 mm
17:16 68.9 °F /  20.5 °C 53.0 °F /  11.7 °C 30.19 in /  1022.2 hPa North 3.0 mph /  4.8 km/h 8.0 mph /  12.9 km/h 57 % 0.00 in /  0 mm
17:21 68.5 °F /  20.3 °C 52.2 °F /  11.2 °C 30.19 in /  1022.2 hPa NNW 1.0 mph /  1.6 km/h 9.0 mph /  14.5 km/h 56 % 0.00 in /  0 mm
17:26 68.3 °F /  20.2 °C 52.5 °F /  11.4 °C 30.19 in /  1022.2 hPa NNW 3.0 mph /  4.8 km/h 10.0 mph /  16.1 km/h 57 % 0.00 in /  0 mm
17:31 67.9 °F /  19.9 °C 52.6 °F /  11.4 °C 30.19 in /  1022.2 hPa NNE 3.1 mph /  5 km/h 8.0 mph /  12.9 km/h 58 % 0.00 in /  0 mm
17:35 67.5 °F /  19.7 °C 52.7 °F /  11.5 °C 30.19 in /  1022.2 hPa North 2.0 mph /  3.2 km/h 10.0 mph /  16.1 km/h 59 % 0.00 in /  0 mm
17:41 67.3 °F /  19.6 °C 52.5 °F /  11.4 °C 30.19 in /  1022.2 hPa NNW 2.0 mph /  3.2 km/h 10.0 mph /  16.1 km/h 59 % 0.00 in /  0 mm
17:45 67.0 °F /  19.4 °C 52.2 °F /  11.2 °C 30.19 in /  1022.2 hPa NNW 3.0 mph /  4.8 km/h 8.0 mph /  12.9 km/h 59 % 0.00 in /  0 mm
17:51 66.7 °F /  19.3 °C 52.4 °F /  11.3 °C 30.19 in /  1022.2 hPa NW 4.0 mph /  6.4 km/h 8.0 mph /  12.9 km/h 60 % 0.00 in /  0 mm
17:56 66.5 °F /  19.2 °C 51.7 °F /  10.9 °C 30.19 in /  1022.2 hPa NW 2.0 mph /  3.2 km/h 12.0 mph /  19.3 km/h 59 % 0.00 in /  0 mm
18:01 66.3 °F /  19.1 °C 52.0 °F /  11.1 °C 30.19 in /  1022.2 hPa North 2.5 mph /  4 km/h 8.1 mph /  13 km/h 60 % 0.00 in /  0 mm
18:06 66.1 °F /  18.9 °C 51.8 °F /  11 °C 30.19 in /  1022.2 hPa NW 4.1 mph /  6.6 km/h 8.1 mph /  13 km/h 60 % 0.00 in /  0 mm
18:11 65.9 °F /  18.8 °C 51.6 °F /  10.9 °C 30.19 in /  1022.2 hPa WNW 0.5 mph /  0.8 km/h 3.5 mph /  5.6 km/h 60 % 0.00 in /  0 mm
18:16 65.8 °F /  18.8 °C 52.0 °F /  11.1 °C 30.19 in /  1022.2 hPa WNW 3.7 mph /  6 km/h 9.2 mph /  14.8 km/h 61 % 0.00 in /  0 mm
18:21 65.6 °F /  18.7 °C 51.8 °F /  11 °C 30.19 in /  1022.2 hPa NNW 2.1 mph /  3.4 km/h 3.5 mph /  5.6 km/h 61 % 0.00 in /  0 mm
18:26 65.5 °F /  18.6 °C 52.1 °F /  11.2 °C 30.19 in /  1022.2 hPa North 2.4 mph /  3.9 km/h 4.6 mph /  7.4 km/h 62 % 0.00 in /  0 mm
18:31 65.3 °F /  18.5 °C 51.9 °F /  11.1 °C 30.19 in /  1022.2 hPa North 0.9 mph /  1.4 km/h 3.5 mph /  5.6 km/h 62 % 0.00 in /  0 mm
18:36 65.1 °F /  18.4 °C 51.8 °F /  11 °C 30.19 in /  1022.2 hPa WNW 2.2 mph /  3.5 km/h 8.1 mph /  13 km/h 62 % 0.00 in /  0 mm
18:41 65.0 °F /  18.3 °C 52.1 °F /  11.2 °C 30.19 in /  1022.2 hPa SSE 0.8 mph /  1.3 km/h 4.6 mph /  7.4 km/h 63 % 0.00 in /  0 mm
18:46 64.8 °F /  18.2 °C 52.3 °F /  11.3 °C 30.19 in /  1022.2 hPa North 1.7 mph /  2.7 km/h 5.8 mph /  9.3 km/h 64 % 0.00 in /  0 mm
18:51 64.6 °F /  18.1 °C 52.1 °F /  11.2 °C 30.19 in /  1022.2 hPa WNW 1.2 mph /  1.9 km/h 4.6 mph /  7.4 km/h 64 % 0.00 in /  0 mm
18:56 64.5 °F /  18.1 °C 52.5 °F /  11.4 °C 30.20 in /  1022.6 hPa NW 1.3 mph /  2.1 km/h 3.5 mph /  5.6 km/h 65 % 0.00 in /  0 mm
19:01 64.3 °F /  17.9 °C 51.9 °F /  11.1 °C 30.19 in /  1022.2 hPa NNW 3.6 mph /  5.8 km/h 6.9 mph /  11.1 km/h 64 % 0.00 in /  0 mm
19:07 64.1 °F /  17.8 °C 52.1 °F /  11.2 °C 30.20 in /  1022.6 hPa NW 3.3 mph /  5.3 km/h 5.8 mph /  9.3 km/h 65 % 0.00 in /  0 mm
19:12 64.0 °F /  17.8 °C 52.0 °F /  11.1 °C 30.20 in /  1022.6 hPa NNE 2.0 mph /  3.2 km/h 5.8 mph /  9.3 km/h 65 % 0.00 in /  0 mm
19:17 63.9 °F /  17.7 °C 52.3 °F /  11.3 °C 30.20 in /  1022.6 hPa NW 1.5 mph /  2.4 km/h 6.0 mph /  9.7 km/h 66 % 0.00 in /  0 mm
19:22 63.7 °F /  17.6 °C 52.1 °F /  11.2 °C 30.20 in /  1022.6 hPa NNW 2.3 mph /  3.7 km/h 8.1 mph /  13 km/h 66 % 0.00 in /  0 mm
19:27 63.6 °F /  17.6 °C 52.0 °F /  11.1 °C 30.20 in /  1022.6 hPa North 1.6 mph /  2.6 km/h 3.5 mph /  5.6 km/h 66 % 0.00 in /  0 mm
19:32 63.5 °F /  17.5 °C 52.3 °F /  11.3 °C 30.20 in /  1022.6 hPa North 1.7 mph /  2.7 km/h 4.6 mph /  7.4 km/h 67 % 0.00 in /  0 mm
19:37 63.4 °F /  17.4 °C 52.2 °F /  11.2 °C 30.20 in /  1022.6 hPa North 3.2 mph /  5.1 km/h 7.0 mph /  11.3 km/h 67 % 0.00 in /  0 mm
19:42 63.4 °F /  17.4 °C 52.2 °F /  11.2 °C 30.20 in /  1022.6 hPa NNW 1.1 mph /  1.8 km/h 5.0 mph /  8 km/h 67 % 0.00 in /  0 mm
19:47 63.3 °F /  17.4 °C 52.6 °F /  11.4 °C 30.21 in /  1022.9 hPa West 2.8 mph /  4.5 km/h 8.1 mph /  13 km/h 68 % 0.00 in /  0 mm
19:52 63.2 °F /  17.3 °C 52.5 °F /  11.4 °C 30.21 in /  1022.9 hPa West 1.8 mph /  2.9 km/h 5.8 mph /  9.3 km/h 68 % 0.00 in /  0 mm
19:57 63.2 °F /  17.3 °C 52.5 °F /  11.4 °C 30.21 in /  1022.9 hPa NNE 1.7 mph /  2.7 km/h 4.6 mph /  7.4 km/h 68 % 0.00 in /  0 mm
20:02 63.2 °F /  17.3 °C 52.5 °F /  11.4 °C 30.21 in /  1022.9 hPa WNW 1.8 mph /  2.9 km/h 5.8 mph /  9.3 km/h 68 % 0.00 in /  0 mm
20:07 63.1 °F /  17.3 °C 52.8 °F /  11.6 °C 30.21 in /  1022.9 hPa NW 2.6 mph /  4.2 km/h 6.9 mph /  11.1 km/h 69 % 0.00 in /  0 mm
20:12 63.1 °F /  17.3 °C 52.4 °F /  11.3 °C 30.21 in /  1022.9 hPa NW 0.6 mph /  1 km/h 5.8 mph /  9.3 km/h 68 % 0.00 in /  0 mm
20:17 63.1 °F /  17.3 °C 52.8 °F /  11.6 °C 30.22 in /  1023.2 hPa North 0.6 mph /  1 km/h 4.6 mph /  7.4 km/h 69 % 0.00 in /  0 mm
20:22 63.1 °F /  17.3 °C 52.8 °F /  11.6 °C 30.22 in /  1023.2 hPa NNW 2.5 mph /  4 km/h 7.0 mph /  11.3 km/h 69 % 0.00 in /  0 mm
20:27 63.2 °F /  17.3 °C 53.3 °F /  11.8 °C 30.22 in /  1023.2 hPa NNW 5.0 mph /  8 km/h 6.9 mph /  11.1 km/h 70 % 0.00 in /  0 mm
20:32 63.2 °F /  17.3 °C 53.3 °F /  11.8 °C 30.22 in /  1023.2 hPa North 1.0 mph /  1.6 km/h 4.0 mph /  6.4 km/h 70 % 0.00 in /  0 mm
20:37 63.2 °F /  17.3 °C 53.3 °F /  11.8 °C 30.22 in /  1023.2 hPa North 1.5 mph /  2.4 km/h 4.6 mph /  7.4 km/h 70 % 0.00 in /  0 mm
20:42 63.1 °F /  17.3 °C 53.2 °F /  11.8 °C 30.22 in /  1023.2 hPa North 2.2 mph /  3.5 km/h 4.0 mph /  6.4 km/h 70 % 0.00 in /  0 mm
20:47 63.1 °F /  17.3 °C 53.5 °F /  11.9 °C 30.22 in /  1023.2 hPa North 0.9 mph /  1.4 km/h 3.5 mph /  5.6 km/h 71 % 0.00 in /  0 mm
20:52 63.0 °F /  17.2 °C 53.8 °F /  12.1 °C 30.22 in /  1023.2 hPa WNW 2.2 mph /  3.5 km/h 3.5 mph /  5.6 km/h 72 % 0.00 in /  0 mm
20:57 63.0 °F /  17.2 °C 53.8 °F /  12.1 °C 30.22 in /  1023.2 hPa North 4.1 mph /  6.6 km/h 6.9 mph /  11.1 km/h 72 % 0.00 in /  0 mm
21:03 62.9 °F /  17.2 °C 53.7 °F /  12.1 °C 30.22 in /  1023.2 hPa NW 3.3 mph /  5.3 km/h 6.9 mph /  11.1 km/h 72 % 0.00 in /  0 mm
21:08 62.9 °F /  17.2 °C 53.7 °F /  12.1 °C 30.22 in /  1023.2 hPa North 2.4 mph /  3.9 km/h 8.1 mph /  13 km/h 72 % 0.00 in /  0 mm
21:13 62.9 °F /  17.2 °C 54.1 °F /  12.3 °C 30.22 in /  1023.2 hPa NNW 2.7 mph /  4.3 km/h 9.2 mph /  14.8 km/h 73 % 0.00 in /  0 mm
21:18 62.8 °F /  17.1 °C 54.0 °F /  12.2 °C 30.22 in /  1023.2 hPa West 3.4 mph /  5.5 km/h 5.0 mph /  8 km/h 73 % 0.00 in /  0 mm
21:23 62.8 °F /  17.1 °C 54.0 °F /  12.2 °C 30.22 in /  1023.2 hPa NW 4.3 mph /  6.9 km/h 9.2 mph /  14.8 km/h 73 % 0.00 in /  0 mm
21:28 62.8 °F /  17.1 °C 53.6 °F /  12 °C 30.22 in /  1023.2 hPa NNE 5.2 mph /  8.4 km/h 9.0 mph /  14.5 km/h 72 % 0.00 in /  0 mm
21:33 62.8 °F /  17.1 °C 54.0 °F /  12.2 °C 30.22 in /  1023.2 hPa NNE 5.6 mph /  9 km/h 9.2 mph /  14.8 km/h 73 % 0.00 in /  0 mm
21:38 62.8 °F /  17.1 °C 54.0 °F /  12.2 °C 30.22 in /  1023.2 hPa NE 4.4 mph /  7.1 km/h 6.9 mph /  11.1 km/h 73 % 0.00 in /  0 mm
21:41 62.9 °F /  17.2 °C 54.1 °F /  12.3 °C 30.22 in /  1023.2 hPa North 3.5 mph /  5.6 km/h 10.4 mph /  16.7 km/h 73 % 0.00 in /  0 mm
21:46 62.9 °F /  17.2 °C 54.1 °F /  12.3 °C 30.22 in /  1023.2 hPa North 7.6 mph /  12.2 km/h 12.0 mph /  19.3 km/h 73 % 0.00 in /  0 mm
21:51 62.9 °F /  17.2 °C 54.1 °F /  12.3 °C 30.22 in /  1023.2 hPa WNW 4.7 mph /  7.6 km/h 9.0 mph /  14.5 km/h 73 % 0.00 in /  0 mm
21:56 63.0 °F /  17.2 °C 54.2 °F /  12.3 °C 30.22 in /  1023.2 hPa NNW 8.1 mph /  13 km/h 12.7 mph /  20.4 km/h 73 % 0.00 in /  0 mm
22:01 63.0 °F /  17.2 °C 54.6 °F /  12.6 °C 30.22 in /  1023.2 hPa NNE 6.6 mph /  10.6 km/h 8.1 mph /  13 km/h 74 % 0.00 in /  0 mm
22:07 63.1 °F /  17.3 °C 54.7 °F /  12.6 °C 30.22 in /  1023.2 hPa North 8.8 mph /  14.2 km/h 13.8 mph /  22.2 km/h 74 % 0.00 in /  0 mm
22:12 63.1 °F /  17.3 °C 54.7 °F /  12.6 °C 30.22 in /  1023.2 hPa NNE 7.3 mph /  11.7 km/h 12.7 mph /  20.4 km/h 74 % 0.00 in /  0 mm
22:17 63.1 °F /  17.3 °C 54.7 °F /  12.6 °C 30.23 in /  1023.6 hPa NNW 8.5 mph /  13.7 km/h 14.0 mph /  22.5 km/h 74 % 0.00 in /  0 mm
22:22 63.1 °F /  17.3 °C 54.7 °F /  12.6 °C 30.23 in /  1023.6 hPa NNW 4.3 mph /  6.9 km/h 11.5 mph /  18.5 km/h 74 % 0.00 in /  0 mm
22:27 63.0 °F /  17.2 °C 54.6 °F /  12.6 °C 30.23 in /  1023.6 hPa North 9.0 mph /  14.5 km/h 12.7 mph /  20.4 km/h 74 % 0.00 in /  0 mm
22:32 62.9 °F /  17.2 °C 54.5 °F /  12.5 °C 30.23 in /  1023.6 hPa NNW 10.3 mph /  16.6 km/h 15.0 mph /  24.1 km/h 74 % 0.00 in /  0 mm
22:37 62.9 °F /  17.2 °C 54.9 °F /  12.7 °C 30.23 in /  1023.6 hPa North 8.5 mph /  13.7 km/h 13.0 mph /  20.9 km/h 75 % 0.00 in /  0 mm
22:42 62.9 °F /  17.2 °C 54.9 °F /  12.7 °C 30.23 in /  1023.6 hPa NW 7.6 mph /  12.2 km/h 12.7 mph /  20.4 km/h 75 % 0.00 in /  0 mm
22:47 62.8 °F /  17.1 °C 54.8 °F /  12.7 °C 30.23 in /  1023.6 hPa North 7.2 mph /  11.6 km/h 11.5 mph /  18.5 km/h 75 % 0.00 in /  0 mm
22:52 62.8 °F /  17.1 °C 54.8 °F /  12.7 °C 30.23 in /  1023.6 hPa NNE 5.9 mph /  9.5 km/h 11.5 mph /  18.5 km/h 75 % 0.00 in /  0 mm
22:57 62.7 °F /  17.1 °C 55.0 °F /  12.8 °C 30.23 in /  1023.6 hPa NNE 5.3 mph /  8.5 km/h 9.2 mph /  14.8 km/h 76 % 0.00 in /  0 mm
23:02 62.6 °F /  17 °C 54.9 °F /  12.7 °C 30.23 in /  1023.6 hPa North 10.2 mph /  16.4 km/h 15.0 mph /  24.1 km/h 76 % 0.00 in /  0 mm
23:07 62.5 °F /  16.9 °C 55.2 °F /  12.9 °C 30.23 in /  1023.6 hPa NNE 7.1 mph /  11.4 km/h 11.5 mph /  18.5 km/h 77 % 0.00 in /  0 mm
23:12 62.4 °F /  16.9 °C 55.1 °F /  12.8 °C 30.23 in /  1023.6 hPa NNE 8.5 mph /  13.7 km/h 12.0 mph /  19.3 km/h 77 % 0.00 in /  0 mm
23:17 62.3 °F /  16.8 °C 55.0 °F /  12.8 °C 30.23 in /  1023.6 hPa NE 8.7 mph /  14 km/h 16.1 mph /  25.9 km/h 77 % 0.00 in /  0 mm
23:22 62.2 °F /  16.8 °C 54.9 °F /  12.7 °C 30.23 in /  1023.6 hPa NNW 6.9 mph /  11.1 km/h 11.5 mph /  18.5 km/h 77 % 0.00 in /  0 mm
23:27 62.2 °F /  16.8 °C 55.3 °F /  12.9 °C 30.23 in /  1023.6 hPa North 5.4 mph /  8.7 km/h 11.5 mph /  18.5 km/h 78 % 0.00 in /  0 mm
23:32 62.1 °F /  16.7 °C 55.2 °F /  12.9 °C 30.23 in /  1023.6 hPa NNE 6.5 mph /  10.5 km/h 9.0 mph /  14.5 km/h 78 % 0.00 in /  0 mm
23:38 62.0 °F /  16.7 °C 55.1 °F /  12.8 °C 30.23 in /  1023.6 hPa NNE 4.5 mph /  7.2 km/h 11.5 mph /  18.5 km/h 78 % 0.00 in /  0 mm
23:43 62.0 °F /  16.7 °C 55.1 °F /  12.8 °C 30.23 in /  1023.6 hPa NNE 7.5 mph /  12.1 km/h 11.5 mph /  18.5 km/h 78 % 0.00 in /  0 mm
23:48 62.0 °F /  16.7 °C 55.1 °F /  12.8 °C 30.23 in /  1023.6 hPa North 7.5 mph /  12.1 km/h 12.7 mph /  20.4 km/h 78 % 0.00 in /  0 mm
23:53 62.0 °F /  16.7 °C 55.4 °F /  13 °C 30.23 in /  1023.6 hPa NNE 5.7 mph /  9.2 km/h 8.1 mph /  13 km/h 79 % 0.00 in /  0 mm
23:58 62.0 °F /  16.7 °C 55.1 °F /  12.8 °C 30.23 in /  1023.6 hPa North 7.0 mph /  11.3 km/h 10.4 mph /  16.7 km/h 78 % 0.00 in /  0 mm
Crab Meadow Weather
Compliments of Weather Underground - 3 mb

Script developed by  Jim McMurry - jmcmurry@mwt.net Adapted for the template by  Wim van der Kuil - Leuven-Template.eu

Weather Terms: Winter Weather Advisory - Hazardous winter weather conditions are occurring, imminent or likely. Conditions will cause a significant inconvenience and if caution is not exercised, will result in a potential threat to life and/or property. The generic term, winter weather advisory, is used for a combination of two or more of the following events; snow, freezing rain or drizzle, sleet, blowing snow.